Time;durP1;ratioP1;P1;durP2;ratioP2;P2;SDS_P1;SDS_P2;PMS_P1;PMS_P2;Temp;Humidity;BMP_temperature;BMP_pressure;BME280_temperature;BME280_humidity;BME280_pressure;Samples;Min_cycle;Max_cycle;Signal;HPM_P1;HPM_P2
2023/07/08 00:01:54;;;;;;;9.48;5.38;;;;;;;;;;5026717;28;20041;-69
2023/07/08 00:04:19;;;;;;;12.35;5.10;;;;;;;;;;5026924;28;20037;-69
2023/07/08 00:06:45;;;;;;;9.88;4.95;;;;;;;;;;5026451;28;20038;-68
2023/07/08 00:09:11;;;;;;;11.00;5.07;;;;;;;;;;5026271;28;20120;-68
2023/07/08 00:11:37;;;;;;;8.75;4.78;;;;;;;;;;5027147;28;20029;-69
2023/07/08 00:14:02;;;;;;;8.05;5.05;;;;;;;;;;5026342;28;20145;-68
2023/07/08 00:16:27;;;;;;;8.48;4.80;;;;;;;;;;5026189;28;20423;-68
2023/07/08 00:18:53;;;;;;;9.43;4.95;;;;;;;;;;5026619;28;20064;-69
2023/07/08 00:21:18;;;;;;;10.63;5.13;;;;;;;;;;5026213;28;20038;-69
2023/07/08 00:23:51;;;;;;;8.80;4.78;;;;;;;;;;5025742;28;20040;-69
2023/07/08 00:26:25;;;;;;;10.80;5.40;;;;;;;;;;5025421;28;20574;-69
2023/07/08 00:28:51;;;;;;;7.80;4.93;;;;;;;;;;5027206;28;20045;-69
2023/07/08 00:31:16;;;;;;;13.90;4.50;;;;;;;;;;5036484;28;20108;-68
2023/07/08 00:33:42;;;;;;;9.77;5.30;;;;;;;;;;5020064;28;20179;-68
2023/07/08 00:36:16;;;;;;;11.63;5.57;;;;;;;;;;5026107;28;20037;-68
2023/07/08 00:38:44;;;;;;;8.45;5.28;;;;;;;;;;5026273;28;20029;-69
2023/07/08 00:41:31;;;;;;;9.30;5.18;;;;;;;;;;5026140;28;20760;-68
2023/07/08 00:43:58;;;;;;;9.35;5.03;;;;;;;;;;5025885;28;20038;-68
2023/07/08 00:46:29;;;;;;;8.40;4.68;;;;;;;;;;5026874;28;20440;-68
2023/07/08 00:49:01;;;;;;;9.80;5.32;;;;;;;;;;5029218;28;20068;-68
2023/07/08 00:51:27;;;;;;;8.10;5.00;;;;;;;;;;5024820;28;20117;-68
2023/07/08 00:53:52;;;;;;;10.68;5.47;;;;;;;;;;5018000;28;20052;-68
2023/07/08 00:56:26;;;;;;;8.40;4.78;;;;;;;;;;5025664;28;20671;-69
2023/07/08 00:58:58;;;;;;;9.90;5.40;;;;;;;;;;5025949;28;20435;-69
2023/07/08 01:01:24;;;;;;;9.52;4.97;;;;;;;;;;5025710;28;20450;-69
2023/07/08 01:03:55;;;;;;;10.50;5.00;;;;;;;;;;5026038;28;20803;-68
2023/07/08 01:06:31;;;;;;;9.95;5.03;;;;;;;;;;5025183;28;20064;-69
2023/07/08 01:08:59;;;;;;;12.45;5.05;;;;;;;;;;5024305;28;20033;-68
2023/07/08 01:11:24;;;;;;;9.02;5.18;;;;;;;;;;5018244;28;20068;-68
2023/07/08 01:13:51;;;;;;;9.90;5.45;;;;;;;;;;5024439;28;20045;-69
2023/07/08 01:16:17;;;;;;;9.00;5.40;;;;;;;;;;5024118;28;20037;-68
2023/07/08 01:18:43;;;;;;;9.65;5.32;;;;;;;;;;5025551;28;20041;-68
2023/07/08 01:21:29;;;;;;;9.77;5.30;;;;;;;;;;5024893;28;20037;-68
2023/07/08 01:23:55;;;;;;;7.57;4.97;;;;;;;;;;5025459;28;20156;-68
2023/07/08 01:26:24;;;;;;;11.75;5.18;;;;;;;;;;5025675;28;20033;-68
2023/07/08 01:28:50;;;;;;;11.60;4.88;;;;;;;;;;5032095;28;20033;-69
2023/07/08 01:31:16;;;;;;;11.07;5.55;;;;;;;;;;5036944;28;20025;-68
2023/07/08 01:33:41;;;;;;;11.63;5.60;;;;;;;;;;5023363;28;20080;-68
2023/07/08 01:36:10;;;;;;;9.95;5.47;;;;;;;;;;5025053;28;20030;-68
2023/07/08 01:38:36;;;;;;;9.40;4.90;;;;;;;;;;5025623;28;20117;-68
2023/07/08 01:41:01;;;;;;;9.65;5.10;;;;;;;;;;5024984;28;20116;-68
2023/07/08 01:43:26;;;;;;;8.48;4.93;;;;;;;;;;5024837;28;20038;-68
2023/07/08 01:45:53;;;;;;;9.38;4.93;;;;;;;;;;5023121;28;20036;-69
2023/07/08 01:48:22;;;;;;;11.75;5.03;;;;;;;;;;5025574;28;20025;-68
2023/07/08 01:50:57;;;;;;;8.15;4.65;;;;;;;;;;5019907;28;20014;-68
2023/07/08 01:53:32;;;;;;;8.70;5.13;;;;;;;;;;5004704;28;20104;-68
2023/07/08 01:55:57;;;;;;;10.25;4.95;;;;;;;;;;5023590;28;20060;-68
2023/07/08 01:58:23;;;;;;;8.15;4.88;;;;;;;;;;5025159;28;20041;-68
2023/07/08 02:00:48;;;;;;;9.30;5.03;;;;;;;;;;5024286;28;20033;-68
2023/07/08 02:03:15;;;;;;;9.18;5.20;;;;;;;;;;5025332;28;20053;-68
2023/07/08 02:05:40;;;;;;;11.63;4.95;;;;;;;;;;5024413;28;20045;-68
2023/07/08 02:08:05;;;;;;;11.88;5.35;;;;;;;;;;5025679;28;20048;-68
2023/07/08 02:10:31;;;;;;;11.30;5.40;;;;;;;;;;5025099;28;20494;-69
2023/07/08 02:12:56;;;;;;;10.93;5.22;;;;;;;;;;5025176;28;20507;-68
2023/07/08 02:15:22;;;;;;;9.85;5.93;;;;;;;;;;5029934;28;20033;-68
2023/07/08 02:17:48;;;;;;;16.92;6.00;;;;;;;;;;5041430;28;20056;-67
2023/07/08 02:20:14;;;;;;;10.20;5.13;;;;;;;;;;5030182;28;20030;-68
2023/07/08 02:22:39;;;;;;;11.20;5.18;;;;;;;;;;5024586;28;20037;-68
2023/07/08 02:25:05;;;;;;;10.57;5.50;;;;;;;;;;5038158;28;20502;-68
2023/07/08 02:27:30;;;;;;;10.82;5.15;;;;;;;;;;5025215;28;20047;-68
2023/07/08 02:29:55;;;;;;;13.90;5.13;;;;;;;;;;5024335;28;20071;-68
2023/07/08 02:32:21;;;;;;;10.85;4.72;;;;;;;;;;5028917;28;20536;-68
2023/07/08 02:34:46;;;;;;;11.00;5.18;;;;;;;;;;5033628;28;20030;-68
2023/07/08 02:37:12;;;;;;;10.20;5.15;;;;;;;;;;5024514;28;20033;-68
2023/07/08 02:39:37;;;;;;;9.48;5.20;;;;;;;;;;5021563;28;20041;-68
2023/07/08 02:42:03;;;;;;;9.40;5.20;;;;;;;;;;5016840;28;20037;-68
2023/07/08 02:44:28;;;;;;;12.95;5.45;;;;;;;;;;5014006;28;20029;-68
2023/07/08 02:46:53;;;;;;;11.77;5.60;;;;;;;;;;5020384;28;20033;-68
2023/07/08 02:49:19;;;;;;;11.32;5.00;;;;;;;;;;5022454;28;20034;-68
2023/07/08 02:51:44;;;;;;;10.55;5.35;;;;;;;;;;5024126;28;20033;-68
2023/07/08 02:54:09;;;;;;;9.75;5.38;;;;;;;;;;5025663;28;20083;-68
2023/07/08 02:56:35;;;;;;;10.00;5.43;;;;;;;;;;5026685;28;20083;-68
2023/07/08 02:59:00;;;;;;;12.18;5.10;;;;;;;;;;5027999;28;20033;-68
2023/07/08 03:01:26;;;;;;;8.95;5.03;;;;;;;;;;5028013;28;20096;-68
2023/07/08 03:03:53;;;;;;;7.72;4.75;;;;;;;;;;5025859;28;20045;-68
2023/07/08 03:06:19;;;;;;;9.93;4.82;;;;;;;;;;5027343;28;20128;-68
2023/07/08 03:08:45;;;;;;;9.20;4.57;;;;;;;;;;5027865;28;20100;-67
2023/07/08 03:11:12;;;;;;;11.45;5.10;;;;;;;;;;5027478;28;20021;-68
2023/07/08 03:13:37;;;;;;;10.55;5.15;;;;;;;;;;5027531;28;20065;-67
2023/07/08 03:16:08;;;;;;;9.90;5.13;;;;;;;;;;5026411;28;20042;-68
2023/07/08 03:18:45;;;;;;;9.82;5.10;;;;;;;;;;5027372;28;20095;-68
2023/07/08 03:21:12;;;;;;;11.35;5.50;;;;;;;;;;5026858;28;20033;-68
2023/07/08 03:23:38;;;;;;;9.40;5.30;;;;;;;;;;5027429;28;20534;-68
2023/07/08 03:26:04;;;;;;;8.98;4.82;;;;;;;;;;5027087;28;20037;-68
2023/07/08 03:28:29;;;;;;;10.80;4.70;;;;;;;;;;5027297;28;20102;-68
2023/07/08 03:30:54;;;;;;;13.15;5.10;;;;;;;;;;5025590;28;20041;-68
2023/07/08 03:33:20;;;;;;;13.20;4.97;;;;;;;;;;5026954;28;20042;-68
2023/07/08 03:35:46;;;;;;;8.93;5.22;;;;;;;;;;5025985;28;20083;-68
2023/07/08 03:38:11;;;;;;;8.27;5.22;;;;;;;;;;5027632;28;20028;-67
2023/07/08 03:40:36;;;;;;;9.75;4.60;;;;;;;;;;5028132;28;20033;-68
2023/07/08 03:43:02;;;;;;;9.85;5.22;;;;;;;;;;5032513;28;20037;-68
2023/07/08 03:45:27;;;;;;;9.85;4.63;;;;;;;;;;5032478;28;20458;-68
2023/07/08 03:47:53;;;;;;;11.05;5.53;;;;;;;;;;5026918;28;20041;-68
2023/07/08 03:50:21;;;;;;;13.63;4.90;;;;;;;;;;5025545;28;20025;-68
2023/07/08 03:52:48;;;;;;;13.02;5.00;;;;;;;;;;5026341;28;20534;-67
2023/07/08 03:55:14;;;;;;;11.05;5.15;;;;;;;;;;5025454;28;20486;-68
2023/07/08 03:57:40;;;;;;;8.07;4.75;;;;;;;;;;5025238;28;20502;-68
2023/07/08 04:00:09;;;;;;;8.73;4.85;;;;;;;;;;5025866;28;20059;-67
2023/07/08 04:02:35;;;;;;;9.45;5.15;;;;;;;;;;5027139;28;20029;-68
2023/07/08 04:05:00;;;;;;;8.32;4.43;;;;;;;;;;5025347;28;20566;-67
2023/07/08 04:07:26;;;;;;;7.70;4.47;;;;;;;;;;5026196;28;20045;-67
2023/07/08 04:09:51;;;;;;;9.40;4.40;;;;;;;;;;5025983;28;20040;-68
2023/07/08 04:12:18;;;;;;;10.77;4.90;;;;;;;;;;5026094;28;20034;-68
2023/07/08 04:14:43;;;;;;;8.98;4.63;;;;;;;;;;5013455;28;20040;-68
2023/07/08 04:17:09;;;;;;;9.57;4.43;;;;;;;;;;5025978;28;20013;-68
2023/07/08 04:19:35;;;;;;;10.27;4.70;;;;;;;;;;5026442;28;20101;-68
2023/07/08 04:22:02;;;;;;;8.95;4.57;;;;;;;;;;5025983;28;20069;-68
2023/07/08 04:24:27;;;;;;;8.73;4.30;;;;;;;;;;5037593;28;20024;-68
2023/07/08 04:26:53;;;;;;;7.97;4.63;;;;;;;;;;5027041;28;20237;-68
2023/07/08 04:29:20;;;;;;;9.02;3.95;;;;;;;;;;5026131;28;20612;-68
2023/07/08 04:31:46;;;;;;;9.98;4.90;;;;;;;;;;5025543;28;20029;-68
2023/07/08 04:34:12;;;;;;;9.85;4.43;;;;;;;;;;5024297;28;20477;-68
2023/07/08 04:36:37;;;;;;;8.95;4.50;;;;;;;;;;5036749;28;20021;-68
2023/07/08 04:39:05;;;;;;;11.02;4.70;;;;;;;;;;5027809;28;20036;-67
2023/07/08 04:41:30;;;;;;;11.88;4.40;;;;;;;;;;5024459;28;20087;-68
2023/07/08 04:43:57;;;;;;;8.95;4.40;;;;;;;;;;5025181;28;20037;-68
2023/07/08 04:46:38;;;;;;;6.38;3.88;;;;;;;;;;5025617;28;20699;-68
2023/07/08 04:49:05;;;;;;;7.30;3.92;;;;;;;;;;5013959;28;20088;-68
2023/07/08 04:51:31;;;;;;;10.00;4.28;;;;;;;;;;5025259;28;20438;-68
2023/07/08 04:53:56;;;;;;;8.40;4.15;;;;;;;;;;5023820;28;20021;-68
2023/07/08 04:56:23;;;;;;;9.68;5.00;;;;;;;;;;5025867;28;20028;-68
2023/07/08 04:58:48;;;;;;;9.02;4.03;;;;;;;;;;5025478;28;20029;-68
2023/07/08 05:01:14;;;;;;;10.52;4.70;;;;;;;;;;5025096;28;20041;-68
2023/07/08 05:03:39;;;;;;;8.25;4.20;;;;;;;;;;5025737;28;20050;-67
2023/07/08 05:06:04;;;;;;;9.02;4.20;;;;;;;;;;5024867;28;20562;-68
2023/07/08 05:08:30;;;;;;;8.00;4.30;;;;;;;;;;5029197;28;20068;-67
2023/07/08 05:10:55;;;;;;;8.45;4.30;;;;;;;;;;5031471;28;20026;-68
2023/07/08 05:13:21;;;;;;;6.80;4.03;;;;;;;;;;5030532;28;20038;-68
2023/07/08 05:15:48;;;;;;;8.75;4.20;;;;;;;;;;5026692;28;20116;-67
2023/07/08 05:18:13;;;;;;;10.60;4.50;;;;;;;;;;5025381;28;20029;-68
2023/07/08 05:20:39;;;;;;;6.15;4.55;;;;;;;;;;5025639;28;20518;-68
2023/07/08 05:23:04;;;;;;;7.03;4.20;;;;;;;;;;5025714;28;20021;-68
2023/07/08 05:25:32;;;;;;;7.85;4.43;;;;;;;;;;5038219;28;20033;-68
2023/07/08 05:27:57;;;;;;;9.48;4.05;;;;;;;;;;5024434;28;20083;-68
2023/07/08 05:30:23;;;;;;;7.70;4.20;;;;;;;;;;5025326;28;20458;-68
2023/07/08 05:32:48;;;;;;;7.72;4.00;;;;;;;;;;5023356;28;20061;-67
2023/07/08 05:35:13;;;;;;;7.47;3.92;;;;;;;;;;5024901;28;20491;-68
2023/07/08 05:37:39;;;;;;;6.45;3.78;;;;;;;;;;5038064;28;20067;-68
2023/07/08 05:40:06;;;;;;;6.47;3.58;;;;;;;;;;5023556;28;20501;-68
2023/07/08 05:42:32;;;;;;;5.82;3.38;;;;;;;;;;5024808;28;20053;-68
2023/07/08 05:44:57;;;;;;;7.18;3.85;;;;;;;;;;5022746;28;20116;-67
2023/07/08 05:47:23;;;;;;;9.18;3.85;;;;;;;;;;5025250;28;20075;-68
2023/07/08 05:49:48;;;;;;;7.75;3.97;;;;;;;;;;5024616;28;20646;-68
2023/07/08 05:52:14;;;;;;;6.55;3.90;;;;;;;;;;5024475;28;20126;-68
2023/07/08 05:54:41;;;;;;;7.63;3.60;;;;;;;;;;5024170;28;20462;-68
2023/07/08 05:57:08;;;;;;;8.82;3.67;;;;;;;;;;5024401;28;20029;-67
2023/07/08 05:59:35;;;;;;;8.68;3.97;;;;;;;;;;5024824;28;20026;-68
2023/07/08 06:02:00;;;;;;;7.85;3.63;;;;;;;;;;5024473;28;20030;-68
2023/07/08 06:04:27;;;;;;;8.35;3.78;;;;;;;;;;5024355;28;20630;-68
2023/07/08 06:06:52;;;;;;;6.45;3.63;;;;;;;;;;5022164;28;20038;-68
2023/07/08 06:09:17;;;;;;;8.52;4.20;;;;;;;;;;5023875;28;20040;-68
2023/07/08 06:11:43;;;;;;;6.57;3.90;;;;;;;;;;5024550;28;20017;-68
2023/07/08 06:14:08;;;;;;;7.95;4.10;;;;;;;;;;5024516;28;20032;-68
2023/07/08 06:16:34;;;;;;;7.53;3.88;;;;;;;;;;5024473;28;20033;-68
2023/07/08 06:19:00;;;;;;;7.47;4.07;;;;;;;;;;5024198;28;20041;-68
2023/07/08 06:21:25;;;;;;;6.38;3.88;;;;;;;;;;5024347;28;20034;-68
2023/07/08 06:23:50;;;;;;;8.45;4.10;;;;;;;;;;5031130;28;20024;-68
2023/07/08 06:26:16;;;;;;;11.70;4.25;;;;;;;;;;5031187;28;20021;-68
2023/07/08 06:28:41;;;;;;;8.10;3.80;;;;;;;;;;5025178;28;20123;-68
2023/07/08 06:31:06;;;;;;;9.18;4.00;;;;;;;;;;5026983;28;20064;-67
2023/07/08 06:33:32;;;;;;;8.40;4.10;;;;;;;;;;5029606;28;20543;-68
2023/07/08 06:35:57;;;;;;;6.75;3.85;;;;;;;;;;5037109;28;20024;-68
2023/07/08 06:38:23;;;;;;;12.05;4.28;;;;;;;;;;5042452;28;20083;-68
2023/07/08 06:40:48;;;;;;;7.68;3.85;;;;;;;;;;5022472;28;20042;-68
2023/07/08 06:43:13;;;;;;;8.05;4.03;;;;;;;;;;5019828;28;20065;-68
2023/07/08 06:45:40;;;;;;;8.75;4.07;;;;;;;;;;5026974;28;20091;-68
2023/07/08 06:48:06;;;;;;;7.00;4.07;;;;;;;;;;5026814;28;20036;-68
2023/07/08 06:50:31;;;;;;;8.00;3.80;;;;;;;;;;5012025;28;20034;-68
2023/07/08 06:52:57;;;;;;;9.18;3.83;;;;;;;;;;5024958;28;20113;-68
2023/07/08 06:55:22;;;;;;;7.00;3.85;;;;;;;;;;5027542;28;20629;-68
2023/07/08 06:57:47;;;;;;;9.52;4.50;;;;;;;;;;5026036;28;20048;-68
2023/07/08 07:00:13;;;;;;;6.47;3.95;;;;;;;;;;5027538;28;20438;-68
2023/07/08 07:02:39;;;;;;;7.85;4.50;;;;;;;;;;5027968;28;20045;-68
2023/07/08 07:05:05;;;;;;;8.77;4.22;;;;;;;;;;5026606;28;20048;-68
2023/07/08 07:07:30;;;;;;;7.50;4.07;;;;;;;;;;5026155;28;20060;-68
2023/07/08 07:09:55;;;;;;;8.13;4.55;;;;;;;;;;5027058;28;20127;-68
2023/07/08 07:12:21;;;;;;;8.02;4.35;;;;;;;;;;5027155;28;20061;-68
2023/07/08 07:14:49;;;;;;;9.70;4.72;;;;;;;;;;5025739;28;20537;-68
2023/07/08 07:17:15;;;;;;;12.43;5.22;;;;;;;;;;5027540;28;20061;-68
2023/07/08 07:19:40;;;;;;;9.45;4.57;;;;;;;;;;5026074;28;20088;-68
2023/07/08 07:22:06;;;;;;;10.30;4.80;;;;;;;;;;5026218;28;20041;-68
2023/07/08 07:24:31;;;;;;;8.25;4.45;;;;;;;;;;5039626;28;20047;-68
2023/07/08 07:26:56;;;;;;;9.43;4.90;;;;;;;;;;5028762;28;20112;-68
2023/07/08 07:29:23;;;;;;;8.60;4.47;;;;;;;;;;5025738;28;20029;-68
2023/07/08 07:31:49;;;;;;;9.15;4.60;;;;;;;;;;5021661;28;20039;-68
2023/07/08 07:34:14;;;;;;;8.50;4.88;;;;;;;;;;5018140;28;20038;-68
2023/07/08 07:36:39;;;;;;;9.38;4.75;;;;;;;;;;5034342;28;20037;-68
2023/07/08 07:39:05;;;;;;;8.48;4.75;;;;;;;;;;5025103;28;20088;-68
2023/07/08 07:41:30;;;;;;;8.98;4.43;;;;;;;;;;5021274;28;20029;-68
2023/07/08 07:43:56;;;;;;;8.23;4.55;;;;;;;;;;5024240;28;20706;-68
2023/07/08 07:46:22;;;;;;;8.18;5.00;;;;;;;;;;5027221;28;20041;-68
2023/07/08 07:48:47;;;;;;;9.90;4.78;;;;;;;;;;5026506;28;20107;-68
2023/07/08 07:51:13;;;;;;;9.27;4.38;;;;;;;;;;5025682;28;20045;-68
2023/07/08 07:53:39;;;;;;;8.98;5.43;;;;;;;;;;5027245;28;20025;-67
2023/07/08 07:56:05;;;;;;;7.85;4.43;;;;;;;;;;5024177;28;20068;-68
2023/07/08 07:58:31;;;;;;;10.13;5.00;;;;;;;;;;5021062;28;20047;-68
2023/07/08 08:00:57;;;;;;;10.10;4.97;;;;;;;;;;5019338;28;20649;-68
2023/07/08 08:03:23;;;;;;;8.85;4.68;;;;;;;;;;5033518;28;20055;-68
2023/07/08 08:05:49;;;;;;;8.35;4.75;;;;;;;;;;5024694;28;20464;-68
2023/07/08 08:08:14;;;;;;;20.05;5.28;;;;;;;;;;5020405;28;20021;-67
2023/07/08 08:10:39;;;;;;;10.93;4.88;;;;;;;;;;5020319;28;20042;-68
2023/07/08 08:13:05;;;;;;;10.52;4.47;;;;;;;;;;5026443;28;20039;-67
2023/07/08 08:15:30;;;;;;;10.07;4.85;;;;;;;;;;5020070;28;20040;-67
2023/07/08 08:17:55;;;;;;;9.25;4.70;;;;;;;;;;5026533;28;20036;-68
2023/07/08 08:20:24;;;;;;;11.70;5.22;;;;;;;;;;5025847;28;20749;-67
2023/07/08 08:22:50;;;;;;;9.50;5.07;;;;;;;;;;5022159;28;20087;-68
2023/07/08 08:25:16;;;;;;;11.07;5.05;;;;;;;;;;5023066;28;20037;-68
2023/07/08 08:27:41;;;;;;;8.13;4.63;;;;;;;;;;5018886;28;20056;-67
2023/07/08 08:30:07;;;;;;;9.68;5.05;;;;;;;;;;5026184;28;20033;-68
2023/07/08 08:32:33;;;;;;;9.15;5.25;;;;;;;;;;5021355;28;20031;-67
2023/07/08 08:34:58;;;;;;;12.35;4.97;;;;;;;;;;5025882;28;20057;-68
2023/07/08 08:37:23;;;;;;;8.35;4.63;;;;;;;;;;5038169;28;20095;-67
2023/07/08 08:39:49;;;;;;;9.00;4.90;;;;;;;;;;5025532;28;20120;-68
2023/07/08 08:42:25;;;;;;;11.40;5.07;;;;;;;;;;5023738;28;20068;-67
2023/07/08 08:44:50;;;;;;;8.75;4.88;;;;;;;;;;5012645;28;20432;-67
2023/07/08 08:47:36;;;;;;;9.07;4.60;;;;;;;;;;5025567;28;20037;-67
2023/07/08 08:50:19;;;;;;;10.52;4.68;;;;;;;;;;5025674;28;20038;-68
2023/07/08 08:52:45;;;;;;;12.70;5.20;;;;;;;;;;5023596;28;20430;-68
2023/07/08 08:55:13;;;;;;;13.60;4.95;;;;;;;;;;5025051;28;20052;-67
2023/07/08 08:57:57;;;;;;;12.20;4.97;;;;;;;;;;5025160;28;20029;-68
2023/07/08 09:00:36;;;;;;;8.52;4.57;;;;;;;;;;5029561;28;20057;-68
2023/07/08 09:03:11;;;;;;;12.32;5.05;;;;;;;;;;5018923;28;20861;-68
2023/07/08 09:05:36;;;;;;;12.32;5.03;;;;;;;;;;5026025;28;20068;-68
2023/07/08 09:08:12;;;;;;;10.73;4.88;;;;;;;;;;5021096;28;20038;-67
2023/07/08 09:10:51;;;;;;;10.35;5.45;;;;;;;;;;5024157;28;20037;-67
2023/07/08 09:13:34;;;;;;;8.10;5.15;;;;;;;;;;5010796;28;20034;-67
2023/07/08 09:16:07;;;;;;;10.32;5.07;;;;;;;;;;5014438;28;20045;-68
2023/07/08 09:18:42;;;;;;;;;;;;;;;;;;4995170;28;20171;-67
2023/07/08 09:21:19;;;;;;;7.22;4.32;;;;;;;;;;5018536;28;19925;-67
2023/07/08 09:23:47;;;;;;;10.30;4.88;;;;;;;;;;5031804;28;20111;-68
2023/07/08 09:26:19;;;;;;;9.25;4.78;;;;;;;;;;5030631;28;20095;-67
2023/07/08 09:28:45;;;;;;;11.05;5.25;;;;;;;;;;5018832;28;20641;-68
2023/07/08 09:31:22;;;;;;;11.63;5.88;;;;;;;;;;5026191;28;20599;-68
2023/07/08 09:33:51;;;;;;;10.07;4.97;;;;;;;;;;5023050;28;20033;-68
2023/07/08 09:36:21;;;;;;;9.85;5.15;;;;;;;;;;5017011;28;20038;-68
2023/07/08 09:38:48;;;;;;;10.95;5.40;;;;;;;;;;5025561;28;20728;-68
2023/07/08 09:41:16;;;;;;;11.52;4.90;;;;;;;;;;5025432;28;20071;-67
2023/07/08 09:43:42;;;;;;;13.18;4.97;;;;;;;;;;5025114;28;20048;-67
2023/07/08 09:46:12;;;;;;;10.40;4.97;;;;;;;;;;5025436;28;20033;-67
2023/07/08 09:48:37;;;;;;;10.90;5.00;;;;;;;;;;5016217;28;20132;-67
2023/07/08 09:51:04;;;;;;;8.75;5.35;;;;;;;;;;5024556;28;20121;-68
2023/07/08 09:53:29;;;;;;;8.15;5.32;;;;;;;;;;5024775;28;20403;-67
2023/07/08 09:56:00;;;;;;;8.63;5.03;;;;;;;;;;5025176;28;20045;-68
2023/07/08 09:58:31;;;;;;;12.32;5.60;;;;;;;;;;5021737;28;20057;-68
2023/07/08 10:01:00;;;;;;;8.05;5.20;;;;;;;;;;5024353;28;20049;-68
2023/07/08 10:03:30;;;;;;;10.38;5.30;;;;;;;;;;5024901;28;20036;-68
2023/07/08 10:06:00;;;;;;;9.45;5.15;;;;;;;;;;5028402;28;20063;-68
2023/07/08 10:08:34;;;;;;;12.45;5.47;;;;;;;;;;5029496;28;20021;-68
2023/07/08 10:11:26;;;;;;;10.43;4.30;;;;;;;;;;5028477;28;20810;-69
2023/07/08 10:13:54;;;;;;;12.40;5.45;;;;;;;;;;5029253;28;20121;-69
2023/07/08 10:16:29;;;;;;;8.35;4.93;;;;;;;;;;5027487;28;20037;-69
2023/07/08 10:18:55;;;;;;;10.73;4.55;;;;;;;;;;5024762;28;20040;-68
2023/07/08 10:21:45;;;;;;;8.32;4.60;;;;;;;;;;5028598;28;20033;-69
2023/07/08 10:24:40;;;;;;;8.50;4.60;;;;;;;;;;5033541;28;20120;-69
2023/07/08 10:27:31;;;;;;;10.35;4.95;;;;;;;;;;5019046;28;20068;-68
2023/07/08 10:30:09;;;;;;;11.93;5.35;;;;;;;;;;5027442;28;20029;-69
2023/07/08 10:32:55;;;;;;;8.48;4.50;;;;;;;;;;5028566;28;20022;-70
2023/07/08 10:36:09;;;;;;;9.23;4.97;;;;;;;;;;5018316;28;20021;-69
2023/07/08 10:39:00;;;;;;;11.77;5.00;;;;;;;;;;5027915;28;20041;-69
2023/07/08 10:41:28;;;;;;;8.75;5.00;;;;;;;;;;5028757;28;20125;-69
2023/07/08 10:44:02;;;;;;;9.50;4.70;;;;;;;;;;5028105;28;20037;-69
2023/07/08 10:46:30;;;;;;;11.88;5.05;;;;;;;;;;5021239;28;20045;-68
2023/07/08 10:49:23;;;;;;;10.80;5.03;;;;;;;;;;5020298;28;20541;-69
2023/07/08 10:52:07;;;;;;;8.43;4.78;;;;;;;;;;5011840;28;20030;-69
2023/07/08 10:54:32;;;;;;;;;;;;;;;;;;5030126;28;20049;-69
2023/07/08 10:57:10;;;;;;;10.93;4.80;;;;;;;;;;5036182;28;19924;-69
2023/07/08 10:59:54;;;;;;;8.25;4.40;;;;;;;;;;5022214;28;20029;-68
2023/07/08 11:02:50;;;;;;;8.35;4.32;;;;;;;;;;5020335;28;20069;-68
2023/07/08 11:05:45;;;;;;;7.82;4.28;;;;;;;;;;5016789;28;20046;-68
2023/07/08 11:08:32;;;;;;;8.55;4.10;;;;;;;;;;5022762;28;20053;-68
2023/07/08 11:11:20;;;;;;;9.73;4.63;;;;;;;;;;5018901;28;20049;-69
2023/07/08 11:13:51;;;;;;;12.50;4.45;;;;;;;;;;5014869;28;20076;-69
2023/07/08 11:16:25;;;;;;;9.68;4.80;;;;;;;;;;5018731;28;20418;-69
2023/07/08 11:18:59;;;;;;;8.95;4.90;;;;;;;;;;5026575;28;20648;-69
2023/07/08 11:21:31;;;;;;;6.90;4.82;;;;;;;;;;5027080;28;20037;-69
2023/07/08 11:24:04;;;;;;;8.53;5.00;;;;;;;;;;5034514;28;20055;-69
2023/07/08 11:26:41;;;;;;;7.10;4.90;;;;;;;;;;5032608;28;20022;-69
2023/07/08 11:29:28;;;;;;;8.85;5.10;;;;;;;;;;5027177;28;20419;-69
2023/07/08 11:31:54;;;;;;;6.60;4.55;;;;;;;;;;5014301;28;20739;-69
2023/07/08 11:34:21;;;;;;;7.32;4.60;;;;;;;;;;5025225;28;20041;-70
2023/07/08 11:36:49;;;;;;;8.73;4.95;;;;;;;;;;5013137;28;20430;-69
2023/07/08 11:39:37;;;;;;;8.98;5.25;;;;;;;;;;5026189;28;20495;-69
2023/07/08 11:42:11;;;;;;;9.40;5.57;;;;;;;;;;5022590;28;20044;-69
2023/07/08 11:44:42;;;;;;;8.88;5.18;;;;;;;;;;5025566;28;20036;-69
2023/07/08 11:47:19;;;;;;;11.07;5.47;;;;;;;;;;5026047;28;20519;-69
2023/07/08 11:49:47;;;;;;;10.52;5.43;;;;;;;;;;5025751;28;20125;-69
2023/07/08 11:52:18;;;;;;;7.68;5.25;;;;;;;;;;5026575;28;20557;-69
2023/07/08 11:54:46;;;;;;;10.35;5.22;;;;;;;;;;5026429;28;20057;-69
2023/07/08 11:57:23;;;;;;;8.68;5.25;;;;;;;;;;5023275;28;20449;-69
2023/07/08 12:00:12;;;;;;;8.65;4.93;;;;;;;;;;5018433;28;20037;-69
2023/07/08 12:02:52;;;;;;;9.32;5.40;;;;;;;;;;5025128;28;20033;-69
2023/07/08 12:05:29;;;;;;;7.65;5.03;;;;;;;;;;5016747;28;20442;-69
2023/07/08 12:07:58;;;;;;;11.80;4.78;;;;;;;;;;5022983;28;20047;-69
2023/07/08 12:10:40;;;;;;;10.60;5.60;;;;;;;;;;5026088;28;20122;-68
2023/07/08 12:13:14;;;;;;;9.43;4.80;;;;;;;;;;5026446;28;20033;-69
2023/07/08 12:15:40;;;;;;;9.68;4.65;;;;;;;;;;5025500;28;20029;-69
2023/07/08 12:18:11;;;;;;;8.65;5.22;;;;;;;;;;5027180;28;20127;-69
2023/07/08 12:20:39;;;;;;;14.88;5.05;;;;;;;;;;5029791;28;20779;-69
2023/07/08 12:23:34;;;;;;;10.75;5.22;;;;;;;;;;5031593;28;20025;-69
2023/07/08 12:26:00;;;;;;;9.82;4.72;;;;;;;;;;5040237;28;20056;-69
2023/07/08 12:28:25;;;;;;;8.60;4.90;;;;;;;;;;5044287;28;20032;-68
2023/07/08 12:30:52;;;;;;;8.52;4.80;;;;;;;;;;5045552;28;20411;-69
2023/07/08 12:33:24;;;;;;;8.13;4.95;;;;;;;;;;5039827;28;20044;-70
2023/07/08 12:35:50;;;;;;;7.10;5.03;;;;;;;;;;5025791;28;20075;-70
2023/07/08 12:38:30;;;;;;;8.40;5.22;;;;;;;;;;5026291;28;20037;-69
2023/07/08 12:40:58;;;;;;;10.02;5.28;;;;;;;;;;5014517;28;20038;-70
2023/07/08 12:43:24;;;;;;;8.63;4.82;;;;;;;;;;5025851;28;20087;-69
2023/07/08 12:45:49;;;;;;;8.48;4.97;;;;;;;;;;5023879;28;20683;-70
2023/07/08 12:48:14;;;;;;;7.80;5.25;;;;;;;;;;5025777;28;20519;-70
2023/07/08 12:50:40;;;;;;;8.20;5.32;;;;;;;;;;5023985;28;20794;-70
2023/07/08 12:53:09;;;;;;;10.60;4.88;;;;;;;;;;5025713;28;20029;-70
2023/07/08 12:55:38;;;;;;;11.82;5.15;;;;;;;;;;5025285;28;20418;-69
2023/07/08 12:58:04;;;;;;;15.00;4.85;;;;;;;;;;5024980;28;20083;-69
2023/07/08 13:00:38;;;;;;;6.22;4.30;;;;;;;;;;5025054;28;20518;-70
2023/07/08 13:03:18;;;;;;;9.57;4.70;;;;;;;;;;5025738;28;20544;-69
2023/07/08 13:05:44;;;;;;;7.78;5.10;;;;;;;;;;5022851;28;20058;-69
2023/07/08 13:08:13;;;;;;;8.05;5.00;;;;;;;;;;5014216;28;20071;-69
2023/07/08 13:10:41;;;;;;;8.73;4.90;;;;;;;;;;5025769;28;20073;-69
2023/07/08 13:13:11;;;;;;;7.25;4.68;;;;;;;;;;5025075;28;20037;-70
2023/07/08 13:15:41;;;;;;;6.15;4.60;;;;;;;;;;5025835;28;20038;-70
2023/07/08 13:18:29;;;;;;;7.30;4.50;;;;;;;;;;5030860;28;20067;-70
2023/07/08 13:20:55;;;;;;;8.48;4.50;;;;;;;;;;5020810;28;20048;-70
2023/07/08 13:23:25;;;;;;;6.43;4.65;;;;;;;;;;5015433;28;20033;-69
2023/07/08 13:25:53;;;;;;;8.77;4.63;;;;;;;;;;5024943;28;20134;-69
2023/07/08 13:28:39;;;;;;;7.95;4.50;;;;;;;;;;5024702;28;20030;-69
2023/07/08 13:31:14;;;;;;;5.90;4.10;;;;;;;;;;5024373;28;20030;-68
2023/07/08 13:33:46;;;;;;;7.28;5.07;;;;;;;;;;5024914;28;20040;-69
2023/07/08 13:36:14;;;;;;;8.25;4.72;;;;;;;;;;5032511;28;20037;-69
2023/07/08 13:38:39;;;;;;;11.07;4.95;;;;;;;;;;5029852;28;20021;-69
2023/07/08 13:41:07;;;;;;;9.05;4.93;;;;;;;;;;5025744;28;20026;-69
2023/07/08 13:43:35;;;;;;;7.15;4.30;;;;;;;;;;5025602;28;20056;-69
2023/07/08 13:46:00;;;;;;;10.82;4.88;;;;;;;;;;5027427;28;20033;-69
2023/07/08 13:48:40;;;;;;;7.97;4.75;;;;;;;;;;5033332;28;20404;-69
2023/07/08 13:51:18;;;;;;;7.50;5.30;;;;;;;;;;5031643;28;20510;-70
2023/07/08 13:53:54;;;;;;;7.72;5.00;;;;;;;;;;5012418;28;20029;-69
2023/07/08 13:56:31;;;;;;;6.13;4.32;;;;;;;;;;5025548;28;20100;-69
2023/07/08 13:59:04;;;;;;;8.13;4.93;;;;;;;;;;5023159;28;20167;-69
2023/07/08 14:01:32;;;;;;;7.80;4.30;;;;;;;;;;5015582;28;20038;-69
2023/07/08 14:04:02;;;;;;;11.82;4.75;;;;;;;;;;5015937;28;20037;-70
2023/07/08 14:06:30;;;;;;;5.43;3.90;;;;;;;;;;5023935;28;20034;-69
2023/07/08 14:08:59;;;;;;;6.00;4.05;;;;;;;;;;5015259;28;20038;-69
2023/07/08 14:11:25;;;;;;;5.70;3.92;;;;;;;;;;5005962;28;20468;-69
2023/07/08 14:13:51;;;;;;;7.07;3.80;;;;;;;;;;5022559;28;20113;-69
2023/07/08 14:16:29;;;;;;;5.93;3.70;;;;;;;;;;5022753;28;20038;-69
2023/07/08 14:18:59;;;;;;;7.15;3.80;;;;;;;;;;5022847;28;20070;-69
2023/07/08 14:21:24;;;;;;;5.60;3.70;;;;;;;;;;5023924;28;20029;-70
2023/07/08 14:23:50;;;;;;;5.97;3.50;;;;;;;;;;5031147;28;20025;-69
2023/07/08 14:26:15;;;;;;;5.85;3.90;;;;;;;;;;5029094;28;20033;-69
2023/07/08 14:28:41;;;;;;;5.72;3.88;;;;;;;;;;5022965;28;20038;-69
2023/07/08 14:31:11;;;;;;;4.55;3.55;;;;;;;;;;5020427;28;20034;-69
2023/07/08 14:33:37;;;;;;;7.05;3.28;;;;;;;;;;5019416;28;20040;-69
2023/07/08 14:36:02;;;;;;;4.43;3.30;;;;;;;;;;5023708;28;20022;-70
2023/07/08 14:38:28;;;;;;;5.15;3.17;;;;;;;;;;5022825;28;20025;-69
2023/07/08 14:40:53;;;;;;;7.32;3.40;;;;;;;;;;5024199;28;20100;-70
2023/07/08 14:43:26;;;;;;;5.70;3.13;;;;;;;;;;5013834;28;20048;-69
2023/07/08 14:45:54;;;;;;;4.63;3.30;;;;;;;;;;5017075;28;20551;-70
2023/07/08 14:48:20;;;;;;;5.88;3.33;;;;;;;;;;5024715;28;20025;-69
2023/07/08 14:50:46;;;;;;;4.45;3.33;;;;;;;;;;5026725;28;20108;-69
2023/07/08 14:53:13;;;;;;;3.70;3.00;;;;;;;;;;5028367;28;20071;-70